Time;durP1;ratioP1;P1;durP2;ratioP2;P2;SDS_P1;SDS_P2;PMS_P1;PMS_P2;Temp;Humidity;BMP_temperature;BMP_pressure;BME280_temperature;BME280_humidity;BME280_pressure;Samples;Min_cycle;Max_cycle;Signal;HPM_P1;HPM_P2
2021/03/31 00:01:21;;;;;;;4.15;1.58;;;;;;;26.82;23.62;97587.38;5069498;28;20036;-26
2021/03/31 00:03:46;;;;;;;3.20;1.50;;;;;;;26.82;23.61;97580.34;5065645;28;20036;-25
2021/03/31 00:06:12;;;;;;;2.03;1.27;;;;;;;26.81;23.56;97578.63;5067255;28;20034;-24
2021/03/31 00:08:38;;;;;;;2.58;1.17;;;;;;;26.82;23.62;97579.50;5066681;28;20025;-30
2021/03/31 00:11:04;;;;;;;2.08;1.40;;;;;;;26.81;23.55;97577.78;5065998;28;20064;-25
2021/03/31 00:13:30;;;;;;;3.13;1.60;;;;;;;26.81;23.70;97580.41;5063613;28;20036;-27
2021/03/31 00:15:55;;;;;;;1.83;1.10;;;;;;;26.80;23.65;97576.91;5069481;28;20503;-22
2021/03/31 00:18:21;;;;;;;2.75;1.30;;;;;;;26.80;23.66;97571.66;5064349;28;20086;-27
2021/03/31 00:20:47;;;;;;;2.30;1.17;;;;;;;26.80;23.67;97578.69;5065169;28;20029;-26
2021/03/31 00:23:13;;;;;;;1.40;1.23;;;;;;;26.79;23.63;97572.59;5066427;28;20017;-25
2021/03/31 00:25:39;;;;;;;3.28;1.48;;;;;;;26.79;23.73;97572.59;5069546;28;20020;-25
2021/03/31 00:28:05;;;;;;;2.40;1.30;;;;;;;26.79;23.73;97569.97;5071465;28;20038;-24
2021/03/31 00:30:30;;;;;;;3.03;1.40;;;;;;;26.79;23.76;97562.06;5065291;28;20031;-25
2021/03/31 00:32:56;;;;;;;2.67;1.27;;;;;;;26.80;23.72;97570.78;5069994;28;21262;-26
2021/03/31 00:35:21;;;;;;;2.97;1.48;;;;;;;26.79;23.64;97559.44;5058843;28;20032;-28
2021/03/31 00:37:47;;;;;;;3.13;1.30;;;;;;;26.78;23.63;97559.50;5066600;28;20039;-24
2021/03/31 00:40:14;;;;;;;1.13;1.00;;;;;;;26.79;23.82;97559.44;5063966;28;20032;-25
2021/03/31 00:42:43;;;;;;;1.77;1.15;;;;;;;26.78;23.66;97565.63;5067953;28;20028;-26
2021/03/31 00:45:09;;;;;;;2.25;1.20;;;;;;;26.77;23.81;97563.91;5062701;28;20103;-26
2021/03/31 00:47:35;;;;;;;2.75;1.52;;;;;;;26.77;23.64;97558.66;5063578;28;20045;-22
2021/03/31 00:50:00;;;;;;;2.92;1.60;;;;;;;26.78;23.83;97560.38;5065550;28;20302;-26
2021/03/31 00:52:26;;;;;;;1.90;1.10;;;;;;;26.76;23.70;97562.19;5065919;28;20036;-23
2021/03/31 00:54:51;;;;;;;1.73;1.25;;;;;;;26.76;23.80;97556.94;5065136;28;20054;-27
2021/03/31 00:57:17;;;;;;;2.75;1.25;;;;;;;26.77;23.59;97556.00;5066325;28;20024;-22
2021/03/31 00:59:42;;;;;;;2.67;1.33;;;;;;;26.76;23.71;97553.47;5066284;28;20412;-23
2021/03/31 01:02:08;;;;;;;2.17;1.38;;;;;;;26.76;23.83;97550.84;5061633;28;20043;-23
2021/03/31 01:04:33;;;;;;;1.50;1.15;;;;;;;26.76;23.79;97548.22;5066268;28;20404;-25
2021/03/31 01:06:59;;;;;;;5.85;1.50;;;;;;;26.76;23.70;97549.06;5064513;28;20020;-24
2021/03/31 01:09:24;;;;;;;2.08;1.20;;;;;;;26.75;23.70;97547.34;5065461;28;20036;-27
2021/03/31 01:12:19;;;;;;;2.30;1.20;;;;;;;26.75;23.88;97544.72;5065622;28;20114;-27
2021/03/31 01:15:09;;;;;;;1.17;1.00;;;;;;;26.75;23.81;97555.25;5062112;28;20027;-27
2021/03/31 01:17:47;;;;;;;3.83;1.40;;;;;;;26.74;23.87;97545.66;5065971;28;20051;-27
2021/03/31 01:20:28;;;;;;;1.63;1.02;;;;;;;26.74;23.91;97535.13;5058563;28;20446;-25
2021/03/31 01:23:29;;;;;;;2.42;1.45;;;;;;;26.74;23.95;97540.41;5059739;28;20032;-24
2021/03/31 01:26:02;;;;;;;1.90;1.52;;;;;;;26.73;23.93;97538.66;5068426;28;20119;-23
2021/03/31 01:28:54;;;;;;;3.20;1.33;;;;;;;26.72;23.99;97539.59;5068757;28;20028;-26
2021/03/31 01:31:56;;;;;;;2.83;1.40;;;;;;;26.71;23.81;97528.25;5062948;28;20073;-27
2021/03/31 01:34:45;;;;;;;1.90;1.33;;;;;;;26.71;23.79;97530.00;5046513;28;20027;-29
2021/03/31 01:37:35;;;;;;;1.77;1.02;;;;;;;26.70;24.00;97528.31;5053736;28;20039;-26
2021/03/31 01:40:01;;;;;;;2.05;1.20;;;;;;;26.70;23.88;97518.63;5066165;28;20033;-25
2021/03/31 01:42:27;;;;;;;1.33;1.08;;;;;;;26.70;24.00;97520.44;5066797;28;20567;-26
2021/03/31 01:44:56;;;;;;;2.40;1.25;;;;;;;26.69;23.93;97516.94;5047419;28;20028;-28
2021/03/31 01:47:21;;;;;;;2.22;1.20;;;;;;;26.68;24.00;97503.84;5064997;28;20591;-28
2021/03/31 01:49:47;;;;;;;2.90;1.10;;;;;;;26.70;23.90;97517.78;5067114;28;20036;-25
2021/03/31 01:52:12;;;;;;;1.75;1.30;;;;;;;26.68;23.95;97515.22;5066097;28;20024;-23
2021/03/31 01:54:42;;;;;;;1.52;1.10;;;;;;;26.69;24.12;97516.09;5065204;28;20925;-25
2021/03/31 01:57:08;;;;;;;1.85;1.10;;;;;;;26.69;23.90;97516.09;5061789;28;20052;-25
2021/03/31 01:59:34;;;;;;;1.58;1.10;;;;;;;26.68;23.88;97509.97;5047350;28;20034;-26
2021/03/31 02:01:59;;;;;;;1.60;0.98;;;;;;;26.67;23.92;97505.66;5060695;28;20020;-29
2021/03/31 02:04:25;;;;;;;1.52;1.10;;;;;;;26.68;24.00;97507.34;5050197;28;20492;-24
2021/03/31 02:06:50;;;;;;;2.35;1.15;;;;;;;26.68;24.10;97509.09;5075895;28;20094;-28
2021/03/31 02:09:16;;;;;;;1.70;1.13;;;;;;;26.67;24.07;97508.28;5063866;28;20081;-23
2021/03/31 02:11:43;;;;;;;1.98;1.30;;;;;;;26.67;23.91;97508.28;5066352;28;20024;-26
2021/03/31 02:14:08;;;;;;;2.38;1.23;;;;;;;26.66;23.92;97498.66;5064250;28;20028;-24
2021/03/31 02:16:33;;;;;;;1.08;0.98;;;;;;;26.67;24.00;97495.13;5064825;28;20024;-27
2021/03/31 02:18:59;;;;;;;4.32;1.35;;;;;;;26.67;24.16;97496.88;5070456;28;20128;-28
2021/03/31 02:21:24;;;;;;;1.88;1.40;;;;;;;26.67;24.11;97486.38;5065963;28;20024;-27
2021/03/31 02:23:50;;;;;;;3.75;1.15;;;;;;;26.67;24.00;97491.63;5047636;28;20720;-27
2021/03/31 02:26:16;;;;;;;1.55;1.00;;;;;;;26.65;24.06;97485.59;5061785;28;20603;-26
2021/03/31 02:28:42;;;;;;;1.05;0.88;;;;;;;26.66;24.10;97489.94;5067036;28;20039;-27
2021/03/31 02:31:08;;;;;;;2.10;1.10;;;;;;;26.65;24.02;97485.59;5061624;28;20032;-27
2021/03/31 02:33:33;;;;;;;7.07;2.00;;;;;;;26.57;24.04;97471.03;5053576;28;20028;-25
2021/03/31 02:35:59;;;;;;;6.18;1.50;;;;;;;26.65;24.08;97477.72;5063529;28;20491;-27
2021/03/31 02:38:24;;;;;;;3.90;1.40;;;;;;;26.63;24.07;97472.53;5063341;28;20034;-23
2021/03/31 02:40:50;;;;;;;4.25;1.45;;;;;;;26.64;24.13;97479.50;5065053;28;20395;-27
2021/03/31 02:43:16;;;;;;;1.73;1.23;;;;;;;26.64;24.13;97476.00;5046659;28;20889;-26
2021/03/31 02:45:42;;;;;;;2.22;1.30;;;;;;;26.62;24.22;97470.84;5065980;28;20031;-28
2021/03/31 02:48:08;;;;;;;1.33;1.20;;;;;;;26.63;24.07;97469.03;5062904;28;20032;-28
2021/03/31 02:50:33;;;;;;;2.25;1.10;;;;;;;26.62;24.27;97468.19;5048936;28;20067;-26
2021/03/31 02:52:58;;;;;;;3.05;1.30;;;;;;;26.63;24.12;97463.78;5061463;28;20028;-25
2021/03/31 02:55:24;;;;;;;1.75;1.02;;;;;;;26.61;24.09;97461.22;5065547;28;20098;-28
2021/03/31 02:57:49;;;;;;;1.73;1.35;;;;;;;26.61;24.09;97456.81;5056575;28;20056;-29
2021/03/31 03:00:15;;;;;;;3.00;1.20;;;;;;;26.63;24.19;97463.78;5040333;28;20024;-27
2021/03/31 03:02:43;;;;;;;2.78;1.20;;;;;;;26.62;24.09;97460.31;5039656;28;20470;-26
2021/03/31 03:05:09;;;;;;;1.60;1.00;;;;;;;26.62;24.33;97460.31;5060539;28;20028;-26
2021/03/31 03:07:36;;;;;;;1.08;0.98;;;;;;;26.61;24.20;97458.59;5050943;28;20038;-28
2021/03/31 03:10:03;;;;;;;2.05;1.05;;;;;;;26.60;24.18;97457.75;5065147;28;20032;-29
2021/03/31 03:12:29;;;;;;;1.50;1.13;;;;;;;26.61;24.18;97454.19;5064474;28;20028;-21
2021/03/31 03:14:54;;;;;;;1.50;1.20;;;;;;;26.60;24.10;97455.13;5064879;28;20456;-24
2021/03/31 03:17:20;;;;;;;1.42;1.10;;;;;;;26.60;24.04;97449.88;5056217;28;20029;-25
2021/03/31 03:19:45;;;;;;;1.88;1.20;;;;;;;26.60;24.22;97457.75;5063672;28;20035;-27
2021/03/31 03:22:11;;;;;;;3.17;1.08;;;;;;;26.60;24.32;97455.13;5066681;28;20024;-27
2021/03/31 03:24:37;;;;;;;3.65;1.40;;;;;;;26.60;24.30;97449.88;5063826;28;20032;-24
2021/03/31 03:27:02;;;;;;;1.60;1.00;;;;;;;26.59;24.37;97448.13;5061998;28;20032;-25
2021/03/31 03:29:28;;;;;;;2.20;1.17;;;;;;;26.59;24.15;97448.13;5064040;28;20054;-25
2021/03/31 03:31:53;;;;;;;1.35;0.90;;;;;;;26.59;24.28;97450.75;5048856;28;20029;-23
2021/03/31 03:34:19;;;;;;;1.88;1.13;;;;;;;26.59;24.10;97457.81;5066534;28;20040;-29
2021/03/31 03:36:44;;;;;;;1.20;0.70;;;;;;;26.58;24.19;97454.31;5047645;28;20024;-27
2021/03/31 03:39:10;;;;;;;2.47;1.10;;;;;;;26.58;24.29;97459.59;5065617;28;20032;-27
2021/03/31 03:41:35;;;;;;;2.08;1.10;;;;;;;26.58;24.31;97456.94;5063713;28;20020;-27
2021/03/31 03:44:01;;;;;;;1.00;0.90;;;;;;;26.57;24.19;97450.00;5065268;28;20051;-28
2021/03/31 03:46:34;;;;;;;1.08;0.95;;;;;;;26.57;24.20;97460.50;5058707;28;20593;-28
2021/03/31 03:48:59;;;;;;;1.80;1.20;;;;;;;26.54;24.10;97455.38;5065336;28;20020;-25
2021/03/31 03:51:25;;;;;;;2.15;1.00;;;;;;;26.57;24.38;97455.25;5066212;28;20016;-23
2021/03/31 03:53:56;;;;;;;1.55;1.00;;;;;;;26.56;24.24;97448.31;5066541;28;20503;-27
2021/03/31 03:56:21;;;;;;;2.17;1.20;;;;;;;26.56;24.33;97453.56;5066131;28;20511;-26
2021/03/31 03:58:47;;;;;;;2.20;1.20;;;;;;;26.56;24.20;97453.56;5067040;28;20085;-25
2021/03/31 04:01:12;;;;;;;1.35;1.15;;;;;;;26.55;24.43;97454.47;5063078;28;20047;-28
2021/03/31 04:03:38;;;;;;;1.58;0.95;;;;;;;26.55;24.27;97449.19;5067682;28;20519;-27
2021/03/31 04:06:04;;;;;;;2.08;1.10;;;;;;;26.45;24.30;97435.66;5064907;28;20047;-29
2021/03/31 04:08:30;;;;;;;1.60;0.77;;;;;;;26.55;24.28;97451.00;5068229;28;20039;-29
2021/03/31 04:10:56;;;;;;;1.38;1.00;;;;;;;26.53;24.36;97444.94;5063669;28;20029;-24
2021/03/31 04:13:21;;;;;;;1.35;1.00;;;;;;;26.54;24.36;97450.13;5066559;28;20481;-27
2021/03/31 04:15:47;;;;;;;2.55;0.90;;;;;;;26.53;24.42;97445.81;5069223;28;20056;-27
2021/03/31 04:18:13;;;;;;;3.10;1.02;;;;;;;26.53;24.41;97453.69;5065847;28;20050;-27
2021/03/31 04:20:39;;;;;;;1.10;1.00;;;;;;;26.53;24.32;97448.44;5082822;28;20036;-27
2021/03/31 04:23:04;;;;;;;1.73;1.15;;;;;;;26.53;24.22;97450.19;5068648;28;20036;-24
2021/03/31 04:25:29;;;;;;;1.67;1.00;;;;;;;26.52;24.29;97449.38;5068988;28;20551;-28
2021/03/31 04:27:55;;;;;;;2.17;1.15;;;;;;;26.52;24.33;97441.47;5078512;28;20035;-24
2021/03/31 04:30:21;;;;;;;1.17;0.93;;;;;;;26.52;24.40;97452.00;5071470;28;20028;-29
2021/03/31 04:32:51;;;;;;;3.45;1.83;;;;;;;26.52;24.44;97457.25;5066701;28;20032;-28
2021/03/31 04:35:20;;;;;;;1.88;1.30;;;;;;;26.51;24.46;97450.28;5069421;28;20078;-25
2021/03/31 04:37:46;;;;;;;3.03;1.30;;;;;;;26.50;24.32;97451.19;5068283;28;20028;-26
2021/03/31 04:40:13;;;;;;;2.85;0.95;;;;;;;26.50;24.49;97453.00;5067144;28;20028;-24
2021/03/31 04:42:38;;;;;;;1.00;0.90;;;;;;;26.50;24.63;97459.06;5066654;28;20036;-25
2021/03/31 04:45:08;;;;;;;2.28;1.00;;;;;;;26.51;24.37;97454.69;5070902;28;20111;-27
2021/03/31 04:47:34;;;;;;;2.63;0.90;;;;;;;26.50;24.49;97453.81;5062873;28;21084;-25
2021/03/31 04:49:59;;;;;;;1.55;0.88;;;;;;;26.50;24.49;97447.72;5070885;28;20019;-21
2021/03/31 04:52:25;;;;;;;1.05;0.88;;;;;;;26.49;24.47;97452.13;5068283;28;20556;-27
2021/03/31 04:54:50;;;;;;;1.98;1.00;;;;;;;26.49;24.41;97462.63;5069221;28;20032;-29
2021/03/31 04:57:15;;;;;;;2.65;1.20;;;;;;;26.47;24.40;97453.97;5064606;28;20020;-27
2021/03/31 04:59:41;;;;;;;1.35;1.02;;;;;;;26.48;24.39;97453.06;5067682;28;20476;-27
2021/03/31 05:02:06;;;;;;;1.13;1.00;;;;;;;26.47;24.43;97454.81;5064091;28;20109;-29
2021/03/31 05:04:32;;;;;;;0.93;0.90;;;;;;;26.47;24.47;97457.44;5066336;28;20028;-25
2021/03/31 05:06:57;;;;;;;4.43;0.77;;;;;;;26.47;24.47;97454.81;5071249;28;20039;-25
2021/03/31 05:09:22;;;;;;;2.08;1.00;;;;;;;26.47;24.49;97448.72;5070200;28;20036;-28
2021/03/31 05:11:48;;;;;;;1.30;1.02;;;;;;;26.46;24.44;97447.84;5065415;28;20040;-25
2021/03/31 05:14:13;;;;;;;2.17;0.90;;;;;;;26.46;24.50;97452.25;5061518;28;20043;-25
2021/03/31 05:16:39;;;;;;;0.95;0.80;;;;;;;26.47;24.38;97448.72;5069156;28;20024;-29
2021/03/31 05:19:04;;;;;;;3.55;0.95;;;;;;;26.47;24.40;97456.59;5070527;28;20043;-26
2021/03/31 05:21:29;;;;;;;1.77;0.90;;;;;;;26.46;24.61;97449.63;5063446;28;20033;-26
2021/03/31 05:23:55;;;;;;;3.20;1.00;;;;;;;26.47;24.58;97453.97;5060245;28;20028;-25
2021/03/31 05:26:20;;;;;;;1.75;0.60;;;;;;;26.45;24.48;97446.16;5067120;28;20032;-29
2021/03/31 05:28:46;;;;;;;1.80;1.13;;;;;;;26.46;24.50;97441.75;5062896;28;20040;-27
2021/03/31 05:31:11;;;;;;;1.05;0.80;;;;;;;26.46;24.56;97439.09;5064293;28;20032;-27
2021/03/31 05:33:36;;;;;;;1.63;0.80;;;;;;;26.44;24.52;97452.34;5061064;28;20065;-26
2021/03/31 05:36:02;;;;;;;1.50;0.93;;;;;;;26.44;24.66;97438.34;5068443;28;20136;-27
2021/03/31 05:38:27;;;;;;;1.23;0.57;;;;;;;26.43;24.73;97436.66;5067646;28;20039;-28
2021/03/31 05:40:56;;;;;;;2.40;1.00;;;;;;;26.44;24.61;97438.34;5067122;28;20032;-25
2021/03/31 05:43:22;;;;;;;0.88;0.70;;;;;;;26.43;24.50;97431.38;5065564;28;20021;-26
2021/03/31 05:45:47;;;;;;;0.80;0.80;;;;;;;26.43;24.58;97437.47;5062185;28;20047;-26
2021/03/31 05:48:13;;;;;;;1.20;1.10;;;;;;;26.42;24.54;97430.53;5065832;28;20037;-25
2021/03/31 05:50:38;;;;;;;1.05;0.80;;;;;;;26.42;24.57;97429.66;5064980;28;20371;-35
2021/03/31 05:53:03;;;;;;;2.25;0.98;;;;;;;26.42;24.62;97421.78;5052554;28;20031;-24
2021/03/31 05:55:29;;;;;;;1.52;1.00;;;;;;;26.43;24.69;97429.59;5052985;28;20035;-27
2021/03/31 05:57:54;;;;;;;1.40;1.00;;;;;;;26.43;24.70;97420.88;5068706;28;20024;-23
2021/03/31 06:00:20;;;;;;;1.40;0.68;;;;;;;26.41;24.62;97420.94;5061074;28;20259;-25
2021/03/31 06:02:46;;;;;;;1.45;0.73;;;;;;;26.43;24.68;97426.13;5061332;28;20028;-27
2021/03/31 06:05:12;;;;;;;2.15;0.93;;;;;;;26.43;24.57;97426.13;5069341;28;20535;-25
2021/03/31 06:07:42;;;;;;;1.42;0.75;;;;;;;26.41;24.64;97425.34;5071616;28;20147;-26
2021/03/31 06:10:07;;;;;;;0.65;0.65;;;;;;;26.42;24.71;97419.16;5074669;28;20496;-26
2021/03/31 06:12:34;;;;;;;1.70;1.00;;;;;;;26.42;24.63;97419.16;5064578;28;20032;-26
2021/03/31 06:15:19;;;;;;;1.15;0.80;;;;;;;26.42;24.60;97427.03;5063898;28;20429;-25
2021/03/31 06:17:52;;;;;;;1.25;0.90;;;;;;;26.41;24.57;97426.19;5066619;28;20065;-29
2021/03/31 06:20:46;;;;;;;1.50;0.77;;;;;;;26.41;24.55;97430.59;5060292;28;20510;-29
2021/03/31 06:26:22;;;;;;;1.02;0.90;;;;;;;26.38;24.74;97418.44;5068210;28;20050;-29
2021/03/31 06:28:40;;;;;;;1.38;0.73;;;;;;;26.39;24.70;97422.78;5062060;28;20079;-28
2021/03/31 06:31:05;;;;;;;3.65;1.10;;;;;;;26.39;24.71;97421.94;5065255;28;20431;-26
2021/03/31 06:33:31;;;;;;;1.25;0.70;;;;;;;26.38;24.61;97422.88;5064757;28;21297;-28
2021/03/31 06:35:56;;;;;;;1.02;0.80;;;;;;;26.39;24.80;97424.56;5069597;28;20384;-25
2021/03/31 06:38:28;;;;;;;1.27;1.00;;;;;;;26.40;24.63;97426.25;5064486;28;20036;-25
2021/03/31 06:40:58;;;;;;;2.67;1.13;;;;;;;26.39;24.65;97427.19;5067050;28;20119;-26
2021/03/31 06:43:30;;;;;;;2.83;1.05;;;;;;;26.40;24.73;97423.63;5064073;28;20029;-25
2021/03/31 06:48:25;;;;;;;7.47;2.30;;;;;;;26.40;24.48;97421.00;5058062;28;20042;-30
2021/03/31 06:50:50;;;;;;;9.20;1.70;;;;;;;26.39;24.58;97417.50;5060806;28;20085;-28
2021/03/31 06:53:24;;;;;;;1.95;1.10;;;;;;;26.41;24.60;97418.31;5064408;28;20031;-31
2021/03/31 06:55:57;;;;;;;2.15;1.20;;;;;;;26.41;24.84;97420.94;5045708;28;20028;-28
2021/03/31 06:58:23;;;;;;;6.07;1.23;;;;;;;26.40;24.65;97416.63;5062513;28;20036;-26
2021/03/31 07:00:48;;;;;;;6.53;2.40;;;;;;;26.42;24.60;97419.16;5061068;28;20584;-27
2021/03/31 07:03:13;;;;;;;3.08;1.08;;;;;;;26.42;24.86;97412.13;5058384;28;20023;-28
2021/03/31 07:05:40;;;;;;;8.82;1.00;;;;;;;26.44;24.64;97412.06;5042186;28;20044;-25
2021/03/31 07:08:07;;;;;;;3.83;1.20;;;;;;;26.45;24.80;97408.50;5040975;28;20348;-28
2021/03/31 07:10:46;;;;;;;2.78;1.30;;;;;;;26.45;24.72;97408.50;5042698;28;20094;-24
2021/03/31 07:13:31;;;;;;;2.35;1.13;;;;;;;26.45;24.69;97416.38;5042465;28;20559;-25
2021/03/31 07:15:57;;;;;;;4.07;1.17;;;;;;;26.48;24.82;97413.63;5042458;28;20054;-30
2021/03/31 07:18:23;;;;;;;1.42;1.08;;;;;;;26.47;24.71;97412.75;5039046;28;20071;-27
2021/03/31 07:20:48;;;;;;;5.15;1.40;;;;;;;26.48;24.70;97414.47;5038311;28;20539;-27
2021/03/31 07:23:13;;;;;;;3.00;1.40;;;;;;;26.50;24.77;97417.03;5040336;28;20555;-23
2021/03/31 07:25:39;;;;;;;2.53;1.10;;;;;;;26.51;24.75;97413.50;5037280;28;20037;-25
2021/03/31 07:28:04;;;;;;;2.50;1.30;;;;;;;26.51;24.79;97416.13;5043607;28;20024;-25
2021/03/31 07:30:30;;;;;;;1.98;1.20;;;;;;;26.51;24.76;97407.38;5024035;28;20111;-25
2021/03/31 07:33:01;;;;;;;6.50;1.33;;;;;;;26.53;24.94;97416.03;5025152;28;20038;-27
2021/03/31 07:35:29;;;;;;;2.63;1.20;;;;;;;26.54;24.88;97410.69;5040489;28;20087;-25
2021/03/31 07:38:00;;;;;;;2.72;1.20;;;;;;;26.55;24.87;97407.16;5040860;28;20029;-26
2021/03/31 07:40:25;;;;;;;2.22;1.20;;;;;;;26.55;24.89;97409.78;5024914;28;20032;-25
2021/03/31 07:43:01;;;;;;;1.95;1.10;;;;;;;26.57;24.83;97402.69;5026768;28;20790;-27
2021/03/31 07:45:30;;;;;;;4.82;1.30;;;;;;;26.58;24.95;97404.38;5040240;28;20032;-21
2021/03/31 07:47:56;;;;;;;2.00;1.00;;;;;;;26.58;24.91;97399.13;5041567;28;20412;-27
2021/03/31 07:50:21;;;;;;;3.33;1.10;;;;;;;26.61;25.01;97403.38;5045400;28;20029;-29
2021/03/31 07:52:57;;;;;;;3.00;1.08;;;;;;;26.60;24.98;97402.56;5046690;28;20056;-29
2021/03/31 07:55:31;;;;;;;1.42;1.00;;;;;;;26.63;25.01;97398.91;5045752;28;20169;-22
2021/03/31 07:58:12;;;;;;;1.45;1.10;;;;;;;26.64;25.05;97397.13;5044007;28;21177;-25
2021/03/31 08:01:02;;;;;;;3.03;1.38;;;;;;;26.67;25.00;97399.63;5046432;28;20749;-28
2021/03/31 08:03:33;;;;;;;1.58;1.02;;;;;;;26.67;25.09;97397.00;5043709;28;20017;-27
2021/03/31 08:06:15;;;;;;;1.80;0.93;;;;;;;26.68;25.07;97399.56;5045987;28;20035;-28
2021/03/31 08:08:55;;;;;;;1.83;1.10;;;;;;;26.70;25.19;97396.84;5047938;28;20108;-29
2021/03/31 08:11:38;;;;;;;1.33;1.00;;;;;;;26.71;25.18;97403.81;5047484;28;20548;-25
2021/03/31 08:14:11;;;;;;;2.95;1.13;;;;;;;26.73;25.12;97401.94;5048870;28;20731;-30
2021/03/31 08:16:41;;;;;;;1.77;0.90;;;;;;;26.73;25.19;97397.56;5050625;28;20029;-23
2021/03/31 08:19:16;;;;;;;1.73;0.93;;;;;;;26.75;25.20;97397.50;5048419;28;20792;-28
2021/03/31 08:21:45;;;;;;;3.20;1.73;;;;;;;26.76;25.33;97399.19;5049418;28;20029;-27
2021/03/31 08:24:11;;;;;;;16.13;6.97;;;;;;;26.73;24.28;97394.94;5044197;28;20033;-27
2021/03/31 08:26:39;;;;;;;21.48;8.23;;;;;;;26.70;23.43;97396.84;5048954;28;20060;-28
2021/03/31 08:29:07;;;;;;;19.50;7.95;;;;;;;26.63;23.17;97400.69;5048473;28;20021;-32
2021/03/31 08:31:40;;;;;;;22.30;7.90;;;;;;;26.56;23.10;97389.59;5034883;28;20075;-27
2021/03/31 08:34:06;;;;;;;17.85;7.13;;;;;;;26.47;22.84;97386.47;5045347;28;20043;-27
2021/03/31 08:36:32;;;;;;;23.90;8.10;;;;;;;26.40;22.86;97389.47;5045838;28;20155;-27
2021/03/31 08:38:59;;;;;;;15.88;7.90;;;;;;;26.32;22.73;97387.22;5042607;28;20825;-32
2021/03/31 08:41:26;;;;;;;17.88;7.85;;;;;;;26.25;22.62;97376.09;5043644;28;20033;-26
2021/03/31 08:44:09;;;;;;;12.30;8.35;;;;;;;26.20;22.66;97383.34;5044178;28;20012;-25
2021/03/31 08:46:35;;;;;;;23.92;8.50;;;;;;;26.14;22.56;97383.59;5044123;28;20036;-32
2021/03/31 08:49:00;;;;;;;23.85;8.98;;;;;;;26.08;22.72;97380.34;5043571;28;20188;-22
2021/03/31 08:51:26;;;;;;;19.88;9.63;;;;;;;25.99;22.47;97375.50;5044519;28;20689;-28
2021/03/31 08:53:51;;;;;;;20.38;8.95;;;;;;;26.01;22.66;97383.31;5036605;28;20033;-25
2021/03/31 08:56:21;;;;;;;19.40;7.60;;;;;;;25.96;22.73;97378.25;5038439;28;20118;-28
2021/03/31 08:58:50;;;;;;;15.82;7.40;;;;;;;25.96;22.85;97375.63;5033152;28;20024;-29
2021/03/31 09:01:25;;;;;;;12.15;5.75;;;;;;;25.95;22.81;97374.78;5034987;28;20167;-26
2021/03/31 09:03:50;;;;;;;10.63;5.45;;;;;;;25.98;22.99;97379.06;5038991;28;20143;-26
2021/03/31 09:06:16;;;;;;;9.88;4.50;;;;;;;26.00;23.11;97366.69;5041090;28;20049;-24
2021/03/31 09:08:42;;;;;;;9.27;4.50;;;;;;;26.03;23.15;97371.81;5044322;28;20163;-26
2021/03/31 09:11:07;;;;;;;12.90;4.55;;;;;;;26.05;23.23;97364.69;5026099;28;20032;-24
2021/03/31 09:13:34;;;;;;;15.80;5.30;;;;;;;26.08;23.15;97368.97;5038054;28;20044;-26
2021/03/31 09:16:01;;;;;;;15.77;3.97;;;;;;;26.10;23.15;97357.47;5037853;28;20492;-24
2021/03/31 09:18:26;;;;;;;11.07;3.65;;;;;;;26.13;23.35;97353.00;5037579;28;20036;-26
2021/03/31 09:20:52;;;;;;;6.03;3.22;;;;;;;26.14;23.26;97352.06;5036261;28;20037;-25
2021/03/31 09:23:24;;;;;;;7.43;3.30;;;;;;;26.17;23.49;97349.31;5029376;28;20060;-26
2021/03/31 09:25:58;;;;;;;6.97;3.20;;;;;;;26.19;23.49;97357.97;5030324;28;20032;-23
2021/03/31 09:28:23;;;;;;;9.88;2.80;;;;;;;26.21;23.34;97348.25;5032680;28;20037;-28
2021/03/31 09:30:51;;;;;;;6.55;2.85;;;;;;;26.22;23.49;97355.22;5036953;28;20405;-26
2021/03/31 09:33:25;;;;;;;9.98;2.78;;;;;;;26.23;23.46;97347.25;5040097;28;20521;-25
2021/03/31 09:35:51;;;;;;;6.70;2.80;;;;;;;26.25;23.63;97349.81;5035114;28;20662;-28
2021/03/31 09:38:24;;;;;;;10.32;2.88;;;;;;;26.27;23.69;97348.00;5042682;28;20036;-25
2021/03/31 09:41:00;;;;;;;14.02;2.85;;;;;;;26.28;23.70;97349.69;5036813;28;20032;-25
2021/03/31 09:43:25;;;;;;;7.80;3.10;;;;;;;26.30;23.67;97341.75;5047579;28;20020;-25
2021/03/31 09:45:53;;;;;;;9.52;2.60;;;;;;;26.30;23.80;97342.59;5046070;28;20039;-26
2021/03/31 09:48:18;;;;;;;12.02;2.67;;;;;;;26.31;23.64;97339.06;5046880;28;20391;-27
2021/03/31 09:50:43;;;;;;;10.15;2.90;;;;;;;26.33;23.81;97338.97;5044664;28;20029;-25
2021/03/31 09:53:09;;;;;;;8.23;2.95;;;;;;;26.34;23.87;97333.66;5045189;28;20032;-27
2021/03/31 09:55:36;;;;;;;9.27;2.88;;;;;;;26.35;23.92;97339.75;5030749;28;20037;-26
2021/03/31 09:58:02;;;;;;;9.90;2.90;;;;;;;26.35;23.76;97330.09;5030049;28;20032;-25
2021/03/31 10:00:27;;;;;;;12.95;3.53;;;;;;;26.37;23.90;97330.03;5049174;28;20024;-27
2021/03/31 10:02:53;;;;;;;14.63;2.88;;;;;;;26.39;24.00;97324.72;5042692;28;20037;-29
2021/03/31 10:05:27;;;;;;;16.00;3.25;;;;;;;26.39;24.08;97324.72;5044224;28;20021;-26
2021/03/31 10:07:56;;;;;;;15.98;3.13;;;;;;;26.40;23.94;97315.91;5051112;28;20032;-29
2021/03/31 10:10:40;;;;;;;14.23;3.38;;;;;;;26.40;24.08;97318.53;5045746;28;20024;-28
2021/03/31 10:13:06;;;;;;;11.05;3.58;;;;;;;26.41;24.03;97312.34;5046920;28;20028;-25
2021/03/31 10:15:31;;;;;;;10.52;3.15;;;;;;;26.41;24.14;97310.56;5051159;28;20082;-27
2021/03/31 10:17:57;;;;;;;12.18;3.42;;;;;;;26.42;24.23;97314.03;5047394;28;20028;-25
2021/03/31 10:20:22;;;;;;;9.35;3.20;;;;;;;26.42;24.03;97308.78;5046620;28;20035;-27
2021/03/31 10:22:52;;;;;;;10.10;3.00;;;;;;;26.43;24.08;97306.09;5046458;28;20035;-29
2021/03/31 10:25:27;;;;;;;9.18;2.70;;;;;;;26.43;24.17;97311.34;5048620;28;20090;-26
2021/03/31 10:27:52;;;;;;;9.30;3.25;;;;;;;26.45;24.23;97313.91;5043673;28;20112;-25
2021/03/31 10:30:33;;;;;;;9.98;3.00;;;;;;;26.45;24.24;97303.38;5046590;28;20017;-26
2021/03/31 10:32:59;;;;;;;8.30;2.90;;;;;;;26.46;24.30;97310.34;5049019;28;20032;-25
2021/03/31 10:35:43;;;;;;;10.75;2.97;;;;;;;26.46;24.33;97307.72;5043613;28;20025;-24
2021/03/31 10:38:16;;;;;;;8.07;2.63;;;;;;;26.48;24.22;97308.50;5048237;28;20137;-30
2021/03/31 10:51:58;;;;;;;6.97;2.35;;;;;;;26.48;24.33;97287.47;5030384;28;20028;-22
2021/03/31 10:54:26;;;;;;;6.93;2.78;;;;;;;26.50;24.39;97290.03;5038969;28;20050;-26
2021/03/31 10:57:05;;;;;;;7.07;2.83;;;;;;;26.48;24.38;97282.22;5048602;28;20079;-27
2021/03/31 10:59:31;;;;;;;6.07;2.50;;;;;;;26.49;24.33;97273.41;5048573;28;20647;-27
2021/03/31 11:01:56;;;;;;;5.90;2.40;;;;;;;26.50;24.48;97274.28;5048602;28;20052;-26
2021/03/31 11:04:22;;;;;;;10.70;2.63;;;;;;;26.50;24.52;97275.09;5048638;28;20757;-28
2021/03/31 11:06:47;;;;;;;7.40;2.58;;;;;;;26.48;24.41;97271.72;5044691;28;20078;-27
2021/03/31 11:09:12;;;;;;;9.48;2.83;;;;;;;26.52;24.48;97267.16;5048430;28;20117;-25
2021/03/31 11:11:38;;;;;;;4.78;2.25;;;;;;;26.53;24.58;97271.47;5043623;28;20020;-25
2021/03/31 11:14:03;;;;;;;5.85;2.30;;;;;;;26.52;24.35;97268.00;5043500;28;20032;-26
2021/03/31 11:16:29;;;;;;;12.60;2.72;;;;;;;26.52;24.56;97268.00;5034546;28;20040;-28
2021/03/31 11:26:37;;;;;;;5.22;2.33;;;;;;;26.52;24.71;97251.38;5035904;28;20063;-27
2021/03/31 11:29:03;;;;;;;10.57;2.50;;;;;;;26.56;24.55;97253.78;5035089;28;20032;-23
2021/03/31 11:31:28;;;;;;;9.00;2.90;;;;;;;26.56;24.46;97256.44;5022099;28;20028;-26
2021/03/31 11:33:54;;;;;;;6.75;2.70;;;;;;;26.56;24.49;97253.78;5042547;28;20020;-27
2021/03/31 11:36:19;;;;;;;9.15;2.67;;;;;;;26.57;24.72;97254.63;5045514;28;20032;-26
2021/03/31 11:38:45;;;;;;;5.97;2.42;;;;;;;26.57;24.64;97244.97;5035853;28;20328;-24
2021/03/31 11:41:11;;;;;;;5.80;2.72;;;;;;;26.57;24.65;97239.72;5037778;28;20075;-27
2021/03/31 11:43:36;;;;;;;6.05;2.70;;;;;;;26.57;24.58;97244.97;5044176;28;20060;-27
2021/03/31 11:46:01;;;;;;;8.23;2.88;;;;;;;26.58;24.38;97235.31;5050606;28;20032;-26
2021/03/31 11:48:27;;;;;;;6.90;3.00;;;;;;;26.57;24.54;97234.47;5050396;28;20697;-29
2021/03/31 11:50:52;;;;;;;5.75;2.92;;;;;;;26.58;24.44;97230.06;5047890;28;20671;-27
2021/03/31 11:53:18;;;;;;;5.72;2.38;;;;;;;26.57;24.42;97229.22;5038057;28;20032;-28
2021/03/31 11:55:43;;;;;;;8.93;2.88;;;;;;;26.58;24.43;97225.66;5036166;28;20029;-30
2021/03/31 11:58:08;;;;;;;7.00;2.53;;;;;;;26.58;24.41;97220.38;5041157;28;20126;-30
2021/03/31 12:00:36;;;;;;;7.43;2.60;;;;;;;26.57;24.59;97218.69;5031179;28;20432;-27